Time;durP1;ratioP1;P1;durP2;ratioP2;P2;SDS_P1;SDS_P2;PMS_P1;PMS_P2;Temp;Humidity;BMP_temperature;BMP_pressure;BME280_temperature;BME280_humidity;BME280_pressure;Samples;Min_cycle;Max_cycle;Signal;HPM_P1;HPM_P2
2023/06/09 00:02:23;;;;;;;13.45;8.00;;;21.80;99.90;;;;;;5031938;28;20036;-72
2023/06/09 00:04:49;;;;;;;9.82;8.65;;;21.80;99.90;;;;;;5029244;28;20517;-72
2023/06/09 00:07:16;;;;;;;15.98;8.90;;;21.80;99.90;;;;;;5029395;28;20025;-72
2023/06/09 00:09:45;;;;;;;11.98;8.93;;;21.70;99.90;;;;;;5022882;28;20072;-72
2023/06/09 00:12:12;;;;;;;12.55;8.40;;;21.70;99.90;;;;;;5022234;28;20025;-73
2023/06/09 00:14:38;;;;;;;15.93;9.10;;;21.60;99.90;;;;;;5029845;28;20022;-72
2023/06/09 00:17:08;;;;;;;16.00;8.85;;;21.50;99.90;;;;;;5026879;28;20045;-73
2023/06/09 00:19:35;;;;;;;11.55;7.40;;;21.50;99.90;;;;;;5003111;28;20033;-73
2023/06/09 00:22:01;;;;;;;13.27;9.02;;;21.50;99.90;;;;;;5023189;28;20096;-74
2023/06/09 00:24:27;;;;;;;13.93;8.82;;;21.40;99.90;;;;;;5025025;28;20433;-73
2023/06/09 00:26:52;;;;;;;13.88;8.48;;;21.40;99.90;;;;;;5026999;28;20057;-72
2023/06/09 00:29:23;;;;;;;15.27;8.88;;;21.30;99.90;;;;;;5027106;28;20023;-72
2023/06/09 00:31:49;;;;;;;12.18;8.10;;;21.40;99.90;;;;;;5022598;28;20038;-73
2023/06/09 00:34:15;;;;;;;16.05;8.32;;;21.40;99.90;;;;;;5018708;28;20091;-73
2023/06/09 00:36:41;;;;;;;18.08;8.95;;;21.40;99.90;;;;;;5019967;28;20427;-73
2023/06/09 00:39:08;;;;;;;13.63;7.88;;;21.30;99.90;;;;;;5019268;28;20565;-72
2023/06/09 00:41:38;;;;;;;14.25;9.20;;;21.30;99.90;;;;;;5022615;28;20062;-73
2023/06/09 00:44:04;;;;;;;16.67;9.40;;;21.30;99.90;;;;;;5025230;28;20029;-72
2023/06/09 00:46:30;;;;;;;12.43;9.05;;;21.30;99.90;;;;;;5008362;28;20044;-72
2023/06/09 00:48:56;;;;;;;15.02;9.18;;;21.30;99.90;;;;;;5021770;28;20033;-72
2023/06/09 00:51:22;;;;;;;12.35;8.95;;;21.20;99.90;;;;;;5022500;28;20029;-73
2023/06/09 00:53:48;;;;;;;13.32;9.18;;;21.20;99.90;;;;;;5027318;28;20022;-73
2023/06/09 00:56:15;;;;;;;17.60;9.75;;;21.10;99.90;;;;;;5025785;28;21425;-74
2023/06/09 00:58:41;;;;;;;14.57;9.93;;;21.10;99.90;;;;;;5022562;28;20018;-73
2023/06/09 01:01:07;;;;;;;14.00;8.48;;;21.10;99.90;;;;;;5011987;28;20045;-72
2023/06/09 01:03:33;;;;;;;14.82;9.10;;;21.10;99.90;;;;;;5012991;28;20028;-72
2023/06/09 01:06:26;;;;;;;13.73;9.23;;;21.10;99.90;;;;;;5025596;28;20037;-71
2023/06/09 01:09:10;;;;;;;14.68;8.77;;;21.00;99.90;;;;;;5027659;28;20025;-72
2023/06/09 01:11:50;;;;;;;13.70;8.27;;;21.00;99.90;;;;;;5016101;28;20087;-72
2023/06/09 01:14:25;;;;;;;13.60;7.82;;;21.00;99.90;;;;;;5011683;28;20049;-72
2023/06/09 01:17:08;;;;;;;13.75;9.23;;;20.90;99.90;;;;;;5024286;28;20036;-73
2023/06/09 01:19:40;;;;;;;;;;;20.90;99.90;;;;;;5023540;28;20064;-73
2023/06/09 01:22:36;;;;;;;16.20;8.57;;;20.80;99.90;;;;;;5022081;28;19910;-73
2023/06/09 01:25:31;;;;;;;16.00;9.80;;;20.90;99.90;;;;;;5024574;28;20083;-74
2023/06/09 01:27:59;;;;;;;12.80;8.57;;;20.70;99.90;;;;;;5022895;28;20025;-73
2023/06/09 01:30:29;;;;;;;16.23;9.52;;;20.80;99.90;;;;;;5020066;28;20525;-73
2023/06/09 01:32:57;;;;;;;18.05;9.23;;;20.70;99.90;;;;;;5020919;28;20048;-74
2023/06/09 01:35:24;;;;;;;13.90;8.98;;;20.70;99.90;;;;;;5022230;28;20033;-73
2023/06/09 01:37:52;;;;;;;10.80;8.55;;;20.60;99.90;;;;;;5025716;28;20014;-73
2023/06/09 01:40:18;;;;;;;16.35;9.20;;;20.60;99.90;;;;;;5027539;28;20033;-73
2023/06/09 01:42:44;;;;;;;12.68;8.88;;;20.60;99.90;;;;;;5024051;28;20054;-73
2023/06/09 01:45:10;;;;;;;16.02;8.77;;;20.60;99.90;;;;;;5025950;28;20049;-73
2023/06/09 01:47:36;;;;;;;15.85;8.57;;;20.60;99.90;;;;;;5025087;28;20116;-74
2023/06/09 01:50:06;;;;;;;15.15;8.75;;;20.50;99.90;;;;;;5025273;28;20101;-73
2023/06/09 01:52:52;;;;;;;14.50;8.73;;;20.50;99.90;;;;;;5027826;28;20033;-74
2023/06/09 01:55:49;;;;;;;13.25;8.65;;;20.40;99.90;;;;;;5023284;28;20025;-73
2023/06/09 01:58:20;;;;;;;13.38;8.57;;;20.40;99.90;;;;;;5025588;28;20052;-74
2023/06/09 02:00:49;;;;;;;12.98;8.68;;;20.40;99.90;;;;;;5025930;28;20029;-73
2023/06/09 02:03:21;;;;;;;13.75;8.73;;;20.20;99.90;;;;;;5023424;28;20513;-74
2023/06/09 02:05:48;;;;;;;17.20;9.32;;;20.20;99.90;;;;;;5030186;28;20033;-73
2023/06/09 02:08:15;;;;;;;17.10;10.35;;;20.20;99.90;;;;;;5029824;28;20041;-73
2023/06/09 02:10:41;;;;;;;10.50;8.32;;;20.20;99.90;;;;;;5025446;28;20033;-73
2023/06/09 02:13:19;;;;;;;11.90;9.73;;;20.10;99.90;;;;;;5025750;28;20359;-73
2023/06/09 02:15:46;;;;;;;14.63;9.75;;;20.10;99.90;;;;;;5006948;28;20558;-73
2023/06/09 02:18:20;;;;;;;19.77;10.13;;;20.10;99.90;;;;;;5025249;28;20492;-73
2023/06/09 02:20:47;;;;;;;16.25;8.70;;;20.10;99.90;;;;;;5025142;28;20592;-73
2023/06/09 02:23:18;;;;;;;11.52;9.07;;;20.00;99.90;;;;;;5025557;28;20025;-73
2023/06/09 02:25:44;;;;;;;15.55;9.45;;;20.00;99.90;;;;;;5025431;28;20037;-73
2023/06/09 02:28:10;;;;;;;18.17;9.98;;;19.90;99.90;;;;;;5022970;28;20382;-73
2023/06/09 02:30:36;;;;;;;16.65;9.13;;;20.00;99.90;;;;;;5009696;28;20017;-73
2023/06/09 02:33:02;;;;;;;16.70;9.15;;;19.90;99.90;;;;;;5023724;28;20075;-73
2023/06/09 02:35:29;;;;;;;12.43;9.10;;;19.80;99.90;;;;;;5025803;28;20100;-73
2023/06/09 02:37:57;;;;;;;15.13;9.90;;;19.80;99.90;;;;;;5026125;28;20034;-73
2023/06/09 02:40:26;;;;;;;11.07;9.60;;;19.80;99.90;;;;;;5027612;28;20030;-73
2023/06/09 02:42:52;;;;;;;18.15;10.77;;;19.80;99.90;;;;;;5023309;28;20117;-73
2023/06/09 02:45:17;;;;;;;13.77;9.00;;;19.70;99.90;;;;;;5017496;28;20104;-73
2023/06/09 02:47:43;;;;;;;14.55;9.82;;;19.70;99.90;;;;;;5024661;28;20033;-73
2023/06/09 02:50:10;;;;;;;14.82;9.57;;;19.70;99.90;;;;;;5011625;28;20040;-73
2023/06/09 02:52:35;;;;;;;12.57;9.35;;;19.70;99.90;;;;;;5027571;28;20061;-73
2023/06/09 02:55:03;;;;;;;14.52;10.13;;;19.60;99.90;;;;;;5023966;28;20049;-72
2023/06/09 02:57:29;;;;;;;11.75;8.80;;;19.60;99.90;;;;;;5024740;28;20024;-73
2023/06/09 02:59:54;;;;;;;15.00;9.50;;;19.60;99.90;;;;;;5025112;28;20138;-73
2023/06/09 03:02:20;;;;;;;16.88;9.75;;;19.50;99.90;;;;;;5022791;28;20068;-73
2023/06/09 03:04:46;;;;;;;13.68;9.43;;;19.50;99.90;;;;;;5022334;28;20470;-73
2023/06/09 03:07:16;;;;;;;19.92;9.65;;;19.40;99.90;;;;;;5025103;28;20372;-74
2023/06/09 03:09:42;;;;;;;13.35;10.18;;;19.40;99.90;;;;;;5026546;28;20392;-73
2023/06/09 03:12:08;;;;;;;13.98;9.48;;;19.40;99.90;;;;;;5024362;28;20024;-73
2023/06/09 03:14:35;;;;;;;13.55;9.40;;;19.40;99.90;;;;;;5024610;28;20029;-73
2023/06/09 03:17:01;;;;;;;10.95;8.52;;;19.40;99.90;;;;;;5028280;28;20021;-74
2023/06/09 03:19:27;;;;;;;15.15;8.93;;;19.40;99.90;;;;;;5019539;28;20029;-73
2023/06/09 03:21:53;;;;;;;14.88;9.27;;;19.40;99.90;;;;;;5025595;28;20416;-73
2023/06/09 03:24:19;;;;;;;14.05;10.20;;;19.40;99.90;;;;;;5022038;28;20101;-73
2023/06/09 03:26:48;;;;;;;15.00;9.38;;;19.30;99.90;;;;;;5024116;28;20078;-73
2023/06/09 03:29:14;;;;;;;14.93;9.27;;;19.20;99.90;;;;;;5027946;28;20045;-73
2023/06/09 03:31:40;;;;;;;17.13;8.85;;;19.20;99.90;;;;;;5024013;28;20410;-73
2023/06/09 03:34:06;;;;;;;20.65;9.15;;;19.20;99.90;;;;;;5032690;28;20072;-73
2023/06/09 03:36:35;;;;;;;15.38;8.93;;;19.20;99.90;;;;;;5017227;28;20445;-72
2023/06/09 03:39:02;;;;;;;13.43;8.95;;;19.00;99.90;;;;;;5022023;28;20024;-73
2023/06/09 03:41:27;;;;;;;14.85;9.15;;;19.00;99.90;;;;;;5024356;28;20483;-73
2023/06/09 03:43:53;;;;;;;15.23;10.10;;;18.90;99.90;;;;;;5026605;28;20097;-74
2023/06/09 03:46:19;;;;;;;16.02;9.73;;;19.00;99.90;;;;;;5027945;28;20091;-73
2023/06/09 03:48:45;;;;;;;21.58;9.68;;;19.00;99.90;;;;;;5022120;28;20021;-72
2023/06/09 03:51:10;;;;;;;11.57;8.57;;;19.00;99.90;;;;;;5026172;28;20452;-73
2023/06/09 03:53:36;;;;;;;13.52;8.77;;;18.90;99.90;;;;;;5025438;28;20485;-73
2023/06/09 03:56:02;;;;;;;17.02;9.35;;;18.80;99.90;;;;;;5017220;28;20021;-74
2023/06/09 03:58:28;;;;;;;12.85;8.65;;;18.80;99.90;;;;;;5021865;28;20537;-73
2023/06/09 04:00:54;;;;;;;15.45;8.90;;;18.90;99.90;;;;;;5026879;28;20065;-73
2023/06/09 04:03:22;;;;;;;13.10;9.30;;;18.80;99.90;;;;;;5027533;28;20045;-73
2023/06/09 04:05:48;;;;;;;15.68;8.23;;;18.90;99.90;;;;;;5021314;28;20036;-73
2023/06/09 04:08:14;;;;;;;14.40;8.45;;;18.90;99.90;;;;;;5007957;28;20263;-74
2023/06/09 04:10:40;;;;;;;13.07;7.45;;;18.80;99.90;;;;;;5025101;28;20037;-73
2023/06/09 04:13:11;;;;;;;18.40;8.50;;;18.70;99.90;;;;;;5022328;28;20025;-73
2023/06/09 04:15:37;;;;;;;14.02;7.55;;;18.80;99.90;;;;;;5025146;28;20064;-73
2023/06/09 04:18:03;;;;;;;11.02;7.75;;;18.80;99.90;;;;;;5023880;28;20040;-73
2023/06/09 04:20:29;;;;;;;14.25;6.68;;;18.80;99.90;;;;;;5016927;28;20402;-73
2023/06/09 04:22:55;;;;;;;15.05;8.07;;;18.70;99.90;;;;;;5025960;28;20022;-73
2023/06/09 04:25:27;;;;;;;10.52;6.63;;;18.70;99.90;;;;;;5021965;28;20026;-73
2023/06/09 04:27:54;;;;;;;12.18;7.70;;;18.70;99.90;;;;;;5029166;28;20022;-73
2023/06/09 04:30:29;;;;;;;10.68;8.27;;;18.80;99.90;;;;;;5012300;28;20478;-73
2023/06/09 04:32:58;;;;;;;13.10;6.97;;;18.80;99.90;;;;;;5026712;28;20037;-73
2023/06/09 04:35:24;;;;;;;14.20;8.35;;;18.90;99.90;;;;;;5023077;28;20026;-73
2023/06/09 04:37:50;;;;;;;10.75;7.35;;;18.80;99.90;;;;;;5022024;28;20156;-73
2023/06/09 04:40:23;;;;;;;12.88;8.20;;;18.80;99.90;;;;;;5021626;28;20025;-73
2023/06/09 04:42:55;;;;;;;17.23;8.55;;;18.90;99.90;;;;;;5029015;28;20091;-73
2023/06/09 04:45:27;;;;;;;15.17;8.07;;;18.80;99.90;;;;;;5019123;28;20369;-73
2023/06/09 04:48:00;;;;;;;15.48;7.45;;;18.90;99.90;;;;;;5021336;28;20029;-73
2023/06/09 04:50:37;;;;;;;12.98;7.70;;;18.90;99.90;;;;;;5022069;28;20033;-74
2023/06/09 04:53:07;;;;;;;11.45;7.82;;;18.80;99.90;;;;;;5027009;28;20025;-73
2023/06/09 04:55:33;;;;;;;17.15;8.23;;;18.90;99.90;;;;;;5018642;28;20398;-73
2023/06/09 04:57:59;;;;;;;15.15;7.72;;;19.00;99.90;;;;;;5020440;28;20084;-73
2023/06/09 05:00:26;;;;;;;11.10;7.30;;;19.00;99.90;;;;;;5027418;28;20839;-74
2023/06/09 05:02:53;;;;;;;14.13;8.45;;;19.00;99.90;;;;;;5014488;28;20362;-73
2023/06/09 05:05:19;;;;;;;14.52;7.70;;;19.00;99.90;;;;;;5023307;28;20496;-73
2023/06/09 05:07:45;;;;;;;15.48;7.95;;;19.00;99.90;;;;;;5025529;28;20112;-73
2023/06/09 05:10:11;;;;;;;13.95;7.93;;;19.00;99.90;;;;;;5017621;28;20145;-73
2023/06/09 05:12:37;;;;;;;15.70;8.60;;;19.10;99.90;;;;;;5028313;28;20089;-73
2023/06/09 05:15:03;;;;;;;10.90;7.72;;;19.00;99.90;;;;;;5015193;28;20025;-73
2023/06/09 05:17:31;;;;;;;11.63;7.85;;;19.10;99.90;;;;;;5029569;28;20144;-73
2023/06/09 05:19:57;;;;;;;14.65;8.20;;;19.10;99.90;;;;;;5032311;28;20044;-73
2023/06/09 05:22:23;;;;;;;13.95;8.07;;;19.20;99.90;;;;;;5032307;28;20021;-74
2023/06/09 05:24:49;;;;;;;13.85;8.15;;;19.20;99.90;;;;;;5024614;28;20026;-74
2023/06/09 05:27:15;;;;;;;15.88;8.52;;;19.20;99.90;;;;;;5023768;28;20072;-74
2023/06/09 05:29:41;;;;;;;17.17;8.00;;;19.20;99.90;;;;;;5036262;28;20043;-74
2023/06/09 05:32:07;;;;;;;13.05;8.18;;;19.20;99.90;;;;;;5028307;28;20033;-73
2023/06/09 05:34:32;;;;;;;19.83;9.52;;;19.20;99.90;;;;;;5026291;28;20387;-76
2023/06/09 05:36:58;;;;;;;18.80;9.98;;;19.10;99.90;;;;;;5029533;28;20025;-75
2023/06/09 05:39:24;;;;;;;15.55;9.05;;;19.10;99.90;;;;;;5023310;28;20025;-73
2023/06/09 05:41:50;;;;;;;18.90;9.32;;;19.00;99.90;;;;;;5026672;28;20029;-75
2023/06/09 05:44:15;;;;;;;11.45;8.57;;;19.00;99.90;;;;;;5028526;28;20510;-75
2023/06/09 05:46:41;;;;;;;18.45;9.68;;;19.00;99.90;;;;;;5029648;28;20500;-74
2023/06/09 05:49:07;;;;;;;14.15;9.50;;;19.00;99.90;;;;;;5023930;28;20029;-74
2023/06/09 05:51:33;;;;;;;16.02;9.57;;;19.10;99.90;;;;;;5030396;28;20528;-74
2023/06/09 05:53:58;;;;;;;15.65;9.77;;;19.10;99.90;;;;;;5028888;28;20052;-73
2023/06/09 05:56:25;;;;;;;13.02;10.68;;;19.20;99.90;;;;;;5033124;28;20033;-74
2023/06/09 05:58:51;;;;;;;19.27;11.15;;;19.20;99.90;;;;;;5025972;28;20025;-74
2023/06/09 06:01:17;;;;;;;20.42;11.25;;;19.30;99.90;;;;;;5022106;28;20030;-74
2023/06/09 06:03:44;;;;;;;16.55;10.30;;;19.20;99.90;;;;;;5024569;28;20062;-74
2023/06/09 06:06:10;;;;;;;12.23;8.93;;;19.20;99.90;;;;;;5023452;28;20029;-73
2023/06/09 06:08:38;;;;;;;17.58;11.45;;;19.20;99.90;;;;;;5027640;28;20902;-74
2023/06/09 06:11:03;;;;;;;17.13;11.45;;;19.30;99.90;;;;;;5026031;28;20025;-73
2023/06/09 06:13:29;;;;;;;21.42;11.90;;;19.30;99.90;;;;;;5026556;28;20018;-74
2023/06/09 06:15:58;;;;;;;22.10;13.10;;;19.30;99.90;;;;;;5026716;28;20396;-74
2023/06/09 06:18:24;;;;;;;17.92;11.18;;;19.40;99.90;;;;;;5030376;28;20029;-74
2023/06/09 06:20:49;;;;;;;21.67;13.07;;;19.40;99.90;;;;;;5028188;28;20049;-73
2023/06/09 06:23:16;;;;;;;21.02;12.48;;;19.40;99.90;;;;;;5018526;28;20026;-74
2023/06/09 06:25:42;;;;;;;19.60;12.82;;;19.50;99.90;;;;;;5029963;28;20021;-74
2023/06/09 06:28:07;;;;;;;15.02;11.82;;;19.60;99.90;;;;;;5017440;28;20021;-74
2023/06/09 06:30:33;;;;;;;19.42;13.63;;;19.60;99.90;;;;;;5028704;28;20049;-75
2023/06/09 06:32:59;;;;;;;18.85;12.52;;;19.70;99.90;;;;;;5024444;28;20382;-74
2023/06/09 06:35:27;;;;;;;20.55;11.82;;;19.70;99.90;;;;;;5027884;28;20061;-74
2023/06/09 06:37:53;;;;;;;16.88;12.13;;;19.80;99.90;;;;;;5024666;28;20040;-74
2023/06/09 06:40:18;;;;;;;20.05;12.52;;;19.90;99.90;;;;;;5024942;28;20488;-73
2023/06/09 06:42:44;;;;;;;18.50;12.25;;;19.90;99.90;;;;;;5032193;28;20551;-74
2023/06/09 06:45:11;;;;;;;19.60;12.10;;;20.00;99.90;;;;;;5030605;28;20493;-74
2023/06/09 06:47:36;;;;;;;21.10;14.05;;;20.00;99.90;;;;;;5029329;28;20030;-72
2023/06/09 06:50:03;;;;;;;17.58;13.13;;;20.20;99.90;;;;;;5011372;28;20022;-72
2023/06/09 06:52:29;;;;;;;20.88;12.68;;;20.40;99.90;;;;;;5026056;28;20018;-73
2023/06/09 06:54:54;;;;;;;21.20;14.43;;;20.50;99.90;;;;;;5010516;28;20381;-72
2023/06/09 06:57:20;;;;;;;24.95;15.30;;;20.60;99.90;;;;;;5022743;28;20021;-72
2023/06/09 06:59:46;;;;;;;18.98;12.80;;;20.80;99.90;;;;;;5032049;28;20025;-72
2023/06/09 07:02:12;;;;;;;21.60;12.70;;;20.90;99.90;;;;;;5028790;28;20482;-73
2023/06/09 07:04:37;;;;;;;16.30;12.75;;;21.20;99.90;;;;;;5031833;28;20037;-72
2023/06/09 07:07:03;;;;;;;20.10;13.48;;;21.20;99.90;;;;;;5022587;28;20061;-72
2023/06/09 07:09:29;;;;;;;21.88;12.40;;;21.40;99.90;;;;;;5025070;28;20396;-73
2023/06/09 07:11:54;;;;;;;20.00;13.23;;;21.60;99.90;;;;;;5025259;28;20113;-73
2023/06/09 07:14:20;;;;;;;21.05;13.13;;;21.80;99.90;;;;;;5025655;28;20087;-73
2023/06/09 07:16:46;;;;;;;22.85;13.50;;;21.90;99.90;;;;;;5022224;28;20076;-72
2023/06/09 07:19:11;;;;;;;19.23;11.93;;;22.10;99.90;;;;;;5016725;28;20029;-72
2023/06/09 07:21:37;;;;;;;17.45;11.80;;;22.20;99.90;;;;;;5026345;28;20030;-73
2023/06/09 07:24:03;;;;;;;17.80;11.60;;;22.40;99.90;;;;;;5020832;28;20135;-72
2023/06/09 07:26:30;;;;;;;16.25;11.00;;;22.50;99.90;;;;;;5023571;28;20026;-72
2023/06/09 07:28:55;;;;;;;16.17;11.15;;;22.70;99.90;;;;;;5025893;28;20112;-72
2023/06/09 07:31:21;;;;;;;17.48;12.25;;;22.90;99.90;;;;;;5020469;28;20101;-73
2023/06/09 07:33:47;;;;;;;15.13;10.80;;;23.00;99.90;;;;;;5020518;28;20397;-73
2023/06/09 07:36:13;;;;;;;17.17;12.05;;;23.20;99.90;;;;;;5027465;28;20029;-73
2023/06/09 07:38:39;;;;;;;15.57;10.48;;;23.20;99.90;;;;;;5027497;28;20018;-73
2023/06/09 07:41:05;;;;;;;13.57;11.23;;;23.30;99.90;;;;;;5030315;28;20103;-73
2023/06/09 07:43:31;;;;;;;14.10;10.00;;;23.40;99.90;;;;;;5019549;28;20079;-73
2023/06/09 07:45:56;;;;;;;13.57;9.35;;;23.60;99.90;;;;;;5026981;28;20445;-72
2023/06/09 07:48:22;;;;;;;11.25;8.98;;;23.80;99.90;;;;;;5023841;28;20040;-74
2023/06/09 07:50:48;;;;;;;13.75;10.88;;;23.90;99.90;;;;;;5028382;28;20456;-74
2023/06/09 07:53:13;;;;;;;10.75;8.82;;;24.10;99.90;;;;;;5020646;28;20025;-73
2023/06/09 07:55:39;;;;;;;15.60;9.05;;;24.10;99.90;;;;;;5022497;28;20033;-73
2023/06/09 07:58:05;;;;;;;13.00;8.80;;;24.20;99.90;;;;;;5025133;28;20393;-75
2023/06/09 08:00:30;;;;;;;11.02;9.10;;;24.40;99.90;;;;;;5016831;28;20165;-77
2023/06/09 08:03:03;;;;;;;12.15;8.70;;;24.50;99.90;;;;;;5021292;28;20636;-77
2023/06/09 08:05:30;;;;;;;15.48;8.70;;;24.70;99.90;;;;;;5004553;28;20033;-75
2023/06/09 08:07:57;;;;;;;12.15;8.80;;;24.80;99.90;;;;;;5024119;28;20029;-76
2023/06/09 08:10:23;;;;;;;9.23;7.95;;;24.80;99.90;;;;;;5023506;28;20021;-76
2023/06/09 08:12:52;;;;;;;9.23;8.25;;;24.90;99.90;;;;;;5023762;28;20231;-75
2023/06/09 08:15:18;;;;;;;9.57;7.35;;;25.00;99.90;;;;;;5021872;28;20030;-75
2023/06/09 08:17:43;;;;;;;12.93;8.50;;;25.10;99.90;;;;;;5026335;28;20022;-74
2023/06/09 08:20:10;;;;;;;9.27;7.65;;;25.20;99.90;;;;;;5024943;28;20485;-74
2023/06/09 08:22:36;;;;;;;11.48;7.70;;;25.20;99.90;;;;;;5024981;28;20112;-76
2023/06/09 08:25:03;;;;;;;11.05;8.30;;;25.40;99.90;;;;;;5021369;28;20029;-76
2023/06/09 08:27:28;;;;;;;12.13;8.80;;;25.40;99.90;;;;;;5017640;28;20122;-76
2023/06/09 08:29:54;;;;;;;9.18;8.25;;;25.50;99.90;;;;;;5019974;28;20421;-76
2023/06/09 08:32:20;;;;;;;12.05;7.93;;;25.60;99.90;;;;;;5025755;28;20036;-76
2023/06/09 08:34:45;;;;;;;11.20;7.97;;;25.80;99.90;;;;;;5025226;28;20067;-75
2023/06/09 08:37:12;;;;;;;9.38;7.82;;;26.00;99.90;;;;;;5027865;28;20026;-75
2023/06/09 08:39:38;;;;;;;9.73;7.15;;;26.10;99.90;;;;;;5024185;28;20449;-75
2023/06/09 08:42:10;;;;;;;10.77;7.32;;;26.10;99.90;;;;;;5021707;28;20059;-75
2023/06/09 08:44:38;;;;;;;;;;;26.30;99.90;;;;;;5012880;28;20050;-75
2023/06/09 08:47:06;;;;;;;8.75;7.82;;;26.30;99.90;;;;;;5029704;28;19935;-73
2023/06/09 08:49:32;;;;;;;7.70;6.88;;;26.50;99.90;;;;;;5024501;28;20112;-74
2023/06/09 08:51:58;;;;;;;9.70;6.93;;;26.70;99.90;;;;;;5022221;28;20432;-73
2023/06/09 08:54:25;;;;;;;8.27;7.13;;;26.60;99.90;;;;;;5022354;28;20022;-74
2023/06/09 08:56:52;;;;;;;9.48;6.53;;;26.60;99.90;;;;;;5026905;28;20054;-74
2023/06/09 08:59:20;;;;;;;8.77;7.15;;;26.80;99.90;;;;;;5020288;28;20049;-74
2023/06/09 09:01:49;;;;;;;8.23;7.40;;;26.90;99.90;;;;;;5025154;28;20497;-74
2023/06/09 09:04:16;;;;;;;8.07;7.00;;;27.00;99.90;;;;;;5018335;28;20359;-72
2023/06/09 09:06:41;;;;;;;7.82;7.13;;;27.10;99.90;;;;;;5024217;28;20025;-72
2023/06/09 09:09:07;;;;;;;10.30;7.88;;;27.20;99.90;;;;;;5021829;28;20037;-72
2023/06/09 09:11:34;;;;;;;8.65;7.80;;;27.40;99.90;;;;;;5025073;28;20071;-72
2023/06/09 09:14:09;;;;;;;8.02;6.93;;;27.60;99.90;;;;;;5016761;28;20022;-72
2023/06/09 09:16:35;;;;;;;7.82;6.72;;;27.60;99.90;;;;;;5026449;28;20056;-72
2023/06/09 09:19:03;;;;;;;7.35;6.75;;;27.70;99.90;;;;;;5025582;28;20502;-72
2023/06/09 09:21:29;;;;;;;8.88;7.97;;;27.70;99.90;;;;;;5019381;28;20067;-74
2023/06/09 09:24:01;;;;;;;7.47;6.75;;;27.80;99.90;;;;;;5020441;28;20587;-73
2023/06/09 09:26:30;;;;;;;7.28;5.85;;;28.10;99.90;;;;;;5026693;28;20014;-74
2023/06/09 09:29:01;;;;;;;7.97;5.65;;;28.00;99.90;;;;;;5008519;28;20362;-73
2023/06/09 09:31:39;;;;;;;9.93;6.03;;;28.20;99.90;;;;;;5008852;28;20037;-74
2023/06/09 09:34:10;;;;;;;6.65;5.93;;;28.40;99.90;;;;;;5024465;28;20037;-74
2023/06/09 09:36:43;;;;;;;7.78;6.28;;;28.40;99.90;;;;;;4997042;28;20036;-74
2023/06/09 09:39:09;;;;;;;7.13;6.15;;;28.50;99.90;;;;;;5007480;28;20460;-74
2023/06/09 09:41:34;;;;;;;7.00;6.30;;;28.60;99.90;;;;;;5023818;28;20045;-74
2023/06/09 09:44:00;;;;;;;7.15;6.05;;;28.70;99.30;;;;;;5020962;28;20028;-74
2023/06/09 09:46:26;;;;;;;8.07;6.03;;;28.80;99.80;;;;;;5025356;28;20030;-74
2023/06/09 09:48:54;;;;;;;8.00;6.15;;;28.90;99.90;;;;;;5024892;28;20113;-74
2023/06/09 09:51:20;;;;;;;8.68;5.95;;;29.10;99.90;;;;;;5025099;28;20476;-74
2023/06/09 09:53:46;;;;;;;7.07;6.25;;;29.20;99.50;;;;;;5023885;28;20021;-75
2023/06/09 09:56:14;;;;;;;8.73;6.18;;;29.10;97.70;;;;;;5022893;28;20025;-74
2023/06/09 09:58:43;;;;;;;6.82;5.82;;;29.20;99.80;;;;;;5023852;28;20025;-74
2023/06/09 10:01:11;;;;;;;6.15;5.57;;;29.30;96.20;;;;;;5027461;28;20040;-74
2023/06/09 10:03:42;;;;;;;6.20;5.60;;;29.40;98.40;;;;;;5024903;28;20221;-74
2023/06/09 10:06:12;;;;;;;6.20;5.60;;;29.50;98.30;;;;;;5025329;28;20377;-74
2023/06/09 10:08:40;;;;;;;6.78;5.25;;;29.50;95.80;;;;;;5010716;28;20022;-75
2023/06/09 10:11:07;;;;;;;7.07;5.63;;;29.40;96.70;;;;;;5028178;28;20049;-74
2023/06/09 10:13:33;;;;;;;10.73;6.03;;;29.60;96.10;;;;;;5030354;28;20030;-74
2023/06/09 10:15:59;;;;;;;6.25;5.65;;;29.60;95.60;;;;;;5010336;28;20025;-74
2023/06/09 10:18:26;;;;;;;7.43;6.22;;;29.70;96.30;;;;;;5027360;28;20040;-74
2023/06/09 10:20:55;;;;;;;5.82;5.03;;;29.70;95.10;;;;;;5005817;28;20492;-74
2023/06/09 10:23:21;;;;;;;6.70;5.45;;;29.80;95.80;;;;;;5028324;28;20021;-73
2023/06/09 10:25:48;;;;;;;7.78;5.75;;;29.80;96.40;;;;;;5026920;28;20025;-75
2023/06/09 10:28:16;;;;;;;6.45;5.72;;;30.10;96.30;;;;;;5028382;28;20034;-75
2023/06/09 10:30:42;;;;;;;7.50;5.45;;;30.20;96.30;;;;;;5029807;28;20039;-75
2023/06/09 10:33:29;;;;;;;7.05;5.20;;;30.40;96.90;;;;;;5028387;28;20036;-74
2023/06/09 10:36:00;;;;;;;12.27;6.03;;;30.20;96.30;;;;;;5026937;28;20416;-74
2023/06/09 10:38:31;;;;;;;5.47;5.07;;;30.20;95.60;;;;;;5028110;28;20105;-73
2023/06/09 10:41:10;;;;;;;6.90;6.30;;;30.10;96.40;;;;;;5027673;28;20389;-74
2023/06/09 10:44:17;;;;;;;8.45;6.38;;;30.00;95.20;;;;;;5002707;28;20033;-74
2023/06/09 10:46:43;;;;;;;6.90;6.18;;;30.20;95.60;;;;;;5027367;28;20056;-74
2023/06/09 10:49:37;;;;;;;7.47;6.55;;;30.40;96.10;;;;;;5026716;28;20053;-74
2023/06/09 10:52:05;;;;;;;10.52;5.75;;;30.50;94.70;;;;;;5009758;28;20044;-74
2023/06/09 10:54:32;;;;;;;6.65;6.00;;;30.70;96.30;;;;;;5011094;28;20018;-74
2023/06/09 10:57:03;;;;;;;9.77;6.35;;;30.60;95.70;;;;;;5005136;28;20053;-74
2023/06/09 10:59:30;;;;;;;9.27;6.28;;;30.70;95.60;;;;;;5026736;28;20018;-73
2023/06/09 11:02:11;;;;;;;8.40;6.38;;;30.70;97.80;;;;;;5025268;28;20045;-73
2023/06/09 11:04:41;;;;;;;8.10;5.82;;;30.70;93.80;;;;;;5024092;28;20029;-72
2023/06/09 11:07:20;;;;;;;8.40;6.47;;;30.60;94.50;;;;;;5026121;28;20036;-72
2023/06/09 11:09:49;;;;;;;7.40;6.13;;;30.60;95.60;;;;;;5006731;28;20033;-73
2023/06/09 11:12:36;;;;;;;8.18;7.38;;;30.60;96.70;;;;;;5026344;28;20025;-73
2023/06/09 11:15:07;;;;;;;10.23;6.63;;;30.90;95.20;;;;;;5023427;28;20032;-73
2023/06/09 11:17:33;;;;;;;8.90;6.35;;;31.10;95.10;;;;;;5025863;28;20104;-73
2023/06/09 11:20:08;;;;;;;7.43;6.15;;;31.20;95.60;;;;;;5011481;28;20083;-73
2023/06/09 11:22:50;;;;;;;6.57;5.97;;;31.30;94.90;;;;;;5024891;28;20041;-73
2023/06/09 11:25:18;;;;;;;6.82;6.15;;;31.30;94.50;;;;;;5027237;28;20025;-72
2023/06/09 11:27:49;;;;;;;6.70;6.18;;;31.20;94.90;;;;;;5027104;28;20372;-72
2023/06/09 11:30:20;;;;;;;17.17;6.18;;;31.40;93.60;;;;;;5025834;28;20377;-72
2023/06/09 11:32:49;;;;;;;6.13;5.60;;;31.40;93.90;;;;;;5025772;28;20116;-72
2023/06/09 11:35:39;;;;;;;8.75;6.50;;;31.30;94.20;;;;;;5027263;28;20025;-73
2023/06/09 11:38:07;;;;;;;7.43;6.38;;;30.90;94.50;;;;;;5026601;28;20489;-74
2023/06/09 11:40:52;;;;;;;6.43;5.80;;;31.20;94.00;;;;;;5010792;28;20044;-73
2023/06/09 11:43:19;;;;;;;6.93;5.65;;;31.40;92.90;;;;;;5005672;28;20029;-72
2023/06/09 11:45:45;;;;;;;7.47;5.80;;;31.40;93.80;;;;;;5023563;28;20524;-73
2023/06/09 11:48:12;;;;;;;7.18;5.68;;;31.40;92.60;;;;;;5025380;28;20033;-73
2023/06/09 11:50:43;;;;;;;5.45;4.93;;;31.50;93.30;;;;;;5026601;28;20203;-73
2023/06/09 11:53:13;;;;;;;7.65;6.38;;;31.70;93.50;;;;;;5021008;28;20033;-73
2023/06/09 11:55:39;;;;;;;5.63;5.22;;;31.80;94.70;;;;;;5025561;28;20094;-71
2023/06/09 11:58:08;;;;;;;5.18;4.68;;;32.00;92.80;;;;;;5026895;28;20022;-73
2023/06/09 12:00:38;;;;;;;5.85;5.25;;;32.00;89.50;;;;;;5027545;28;20864;-72
2023/06/09 12:03:07;;;;;;;7.68;5.30;;;32.00;91.40;;;;;;5025749;28;20032;-72
2023/06/09 12:05:33;;;;;;;7.53;5.55;;;32.10;90.80;;;;;;5023495;28;20033;-71
2023/06/09 12:08:00;;;;;;;5.93;5.38;;;32.00;90.60;;;;;;5026651;28;20035;-72
2023/06/09 12:10:27;;;;;;;6.38;4.68;;;32.00;90.00;;;;;;5026001;28;20156;-72
2023/06/09 12:12:57;;;;;;;5.28;4.88;;;31.90;89.30;;;;;;5021885;28;20044;-73
2023/06/09 12:15:26;;;;;;;8.05;4.40;;;31.80;89.60;;;;;;5026359;28;20022;-73
2023/06/09 12:17:56;;;;;;;6.07;4.95;;;32.00;89.70;;;;;;5021640;28;20021;-72
2023/06/09 12:20:25;;;;;;;5.82;5.00;;;32.00;89.70;;;;;;5026241;28;20686;-73
2023/06/09 12:23:01;;;;;;;9.05;4.85;;;32.00;87.80;;;;;;5024523;28;20025;-72
2023/06/09 12:25:33;;;;;;;11.20;5.00;;;32.00;85.90;;;;;;5022659;28;20503;-73
2023/06/09 12:28:32;;;;;;;5.07;4.57;;;31.80;88.50;;;;;;5025243;28;20036;-72
2023/06/09 12:31:06;;;;;;;5.18;4.57;;;31.80;90.20;;;;;;5026095;28;20025;-73
2023/06/09 12:33:33;;;;;;;9.05;4.50;;;32.00;88.50;;;;;;5027109;28;20041;-74
2023/06/09 12:36:10;;;;;;;5.53;4.95;;;32.00;88.30;;;;;;5017296;28;20032;-72
2023/06/09 12:38:40;;;;;;;5.70;5.20;;;32.10;89.10;;;;;;5024690;28;20025;-70
2023/06/09 12:41:08;;;;;;;6.25;5.18;;;32.20;89.20;;;;;;5021524;28;20114;-70
2023/06/09 12:43:48;;;;;;;5.65;5.15;;;32.10;90.70;;;;;;5023898;28;20047;-72
2023/06/09 12:46:26;;;;;;;5.82;5.05;;;32.40;88.50;;;;;;5022768;28;20029;-72